sensor_id;sensor_type;location;lat;lon;timestamp;temperature;humidity
21255;DHT22;10785;50.674;17.954;2023-03-12T00:00:48;-0.40;99.90
21255;DHT22;10785;50.674;17.954;2023-03-12T00:03:17;-0.50;99.90
21255;DHT22;10785;50.674;17.954;2023-03-12T00:05:47;-0.50;99.90
21255;DHT22;10785;50.674;17.954;2023-03-12T00:08:18;-0.50;99.90
21255;DHT22;10785;50.674;17.954;2023-03-12T00:10:46;-0.60;99.90
21255;DHT22;10785;50.674;17.954;2023-03-12T00:13:15;-0.70;99.90
21255;DHT22;10785;50.674;17.954;2023-03-12T00:15:44;-0.70;99.90
21255;DHT22;10785;50.674;17.954;2023-03-12T00:18:12;-0.80;99.90
21255;DHT22;10785;50.674;17.954;2023-03-12T00:20:41;-0.90;99.90
21255;DHT22;10785;50.674;17.954;2023-03-12T00:23:11;-0.90;99.90
21255;DHT22;10785;50.674;17.954;2023-03-12T00:25:39;-1.00;99.90
21255;DHT22;10785;50.674;17.954;2023-03-12T00:28:10;-1.00;99.90
21255;DHT22;10785;50.674;17.954;2023-03-12T00:30:39;-0.90;99.90
21255;DHT22;10785;50.674;17.954;2023-03-12T00:33:10;-0.80;99.90
21255;DHT22;10785;50.674;17.954;2023-03-12T00:35:39;-0.80;99.90
21255;DHT22;10785;50.674;17.954;2023-03-12T00:38:08;-0.80;99.90
21255;DHT22;10785;50.674;17.954;2023-03-12T00:40:38;-0.80;99.90
21255;DHT22;10785;50.674;17.954;2023-03-12T00:43:06;-0.80;99.90
21255;DHT22;10785;50.674;17.954;2023-03-12T00:45:35;-0.80;99.90
21255;DHT22;10785;50.674;17.954;2023-03-12T00:48:04;-0.90;99.90
21255;DHT22;10785;50.674;17.954;2023-03-12T00:50:33;-1.00;99.90
21255;DHT22;10785;50.674;17.954;2023-03-12T00:53:01;-1.00;99.90
21255;DHT22;10785;50.674;17.954;2023-03-12T00:55:30;-1.10;99.90
21255;DHT22;10785;50.674;17.954;2023-03-12T00:58:00;-1.20;99.90
21255;DHT22;10785;50.674;17.954;2023-03-12T01:00:29;-1.10;99.90
21255;DHT22;10785;50.674;17.954;2023-03-12T01:02:58;-1.10;99.90
21255;DHT22;10785;50.674;17.954;2023-03-12T01:05:27;-1.10;99.90
21255;DHT22;10785;50.674;17.954;2023-03-12T01:07:56;-1.10;99.90
21255;DHT22;10785;50.674;17.954;2023-03-12T01:10:24;-1.10;99.90
21255;DHT22;10785;50.674;17.954;2023-03-12T01:12:53;-1.10;99.90
21255;DHT22;10785;50.674;17.954;2023-03-12T01:15:23;-1.10;99.90
21255;DHT22;10785;50.674;17.954;2023-03-12T01:17:52;-1.10;99.90
21255;DHT22;10785;50.674;17.954;2023-03-12T01:20:21;-1.10;99.90
21255;DHT22;10785;50.674;17.954;2023-03-12T01:22:51;-1.10;99.90
21255;DHT22;10785;50.674;17.954;2023-03-12T01:25:20;-1.10;99.90
21255;DHT22;10785;50.674;17.954;2023-03-12T01:27:49;-1.10;99.90
21255;DHT22;10785;50.674;17.954;2023-03-12T01:30:19;-1.10;99.90
21255;DHT22;10785;50.674;17.954;2023-03-12T02:05:23;-1.10;99.90
21255;DHT22;10785;50.674;17.954;2023-03-12T02:07:52;-1.10;99.90
21255;DHT22;10785;50.674;17.954;2023-03-12T02:10:22;-1.10;99.90
21255;DHT22;10785;50.674;17.954;2023-03-12T02:12:52;-1.10;99.90
21255;DHT22;10785;50.674;17.954;2023-03-12T02:15:21;-1.10;99.90
21255;DHT22;10785;50.674;17.954;2023-03-12T02:17:50;-1.10;99.90
21255;DHT22;10785;50.674;17.954;2023-03-12T02:20:27;-1.20;99.90
21255;DHT22;10785;50.674;17.954;2023-03-12T02:23:03;-1.20;99.90
21255;DHT22;10785;50.674;17.954;2023-03-12T02:25:37;-1.20;99.90
21255;DHT22;10785;50.674;17.954;2023-03-12T02:28:09;-1.30;99.90
21255;DHT22;10785;50.674;17.954;2023-03-12T02:30:41;-1.30;99.90
21255;DHT22;10785;50.674;17.954;2023-03-12T02:33:12;-1.40;99.90
21255;DHT22;10785;50.674;17.954;2023-03-12T02:35:42;-1.50;99.90
21255;DHT22;10785;50.674;17.954;2023-03-12T02:38:37;-1.50;99.90
21255;DHT22;10785;50.674;17.954;2023-03-12T02:41:14;-1.50;99.90
21255;DHT22;10785;50.674;17.954;2023-03-12T02:43:45;-1.50;99.90
21255;DHT22;10785;50.674;17.954;2023-03-12T02:46:15;-1.60;99.90
21255;DHT22;10785;50.674;17.954;2023-03-12T02:48:43;-1.60;99.90
21255;DHT22;10785;50.674;17.954;2023-03-12T02:51:12;-1.60;99.90
21255;DHT22;10785;50.674;17.954;2023-03-12T02:53:41;-1.60;99.90
21255;DHT22;10785;50.674;17.954;2023-03-12T02:56:11;-1.70;99.90
21255;DHT22;10785;50.674;17.954;2023-03-12T02:58:39;-1.70;99.90
21255;DHT22;10785;50.674;17.954;2023-03-12T03:01:09;-1.70;99.90
21255;DHT22;10785;50.674;17.954;2023-03-12T03:03:38;-1.70;99.90
21255;DHT22;10785;50.674;17.954;2023-03-12T03:06:07;-1.70;99.90
21255;DHT22;10785;50.674;17.954;2023-03-12T03:08:36;-1.70;99.90
21255;DHT22;10785;50.674;17.954;2023-03-12T03:11:04;-1.70;99.90
21255;DHT22;10785;50.674;17.954;2023-03-12T03:13:35;-1.80;99.90
21255;DHT22;10785;50.674;17.954;2023-03-12T03:16:04;-1.80;99.90
21255;DHT22;10785;50.674;17.954;2023-03-12T03:18:33;-1.80;99.90
21255;DHT22;10785;50.674;17.954;2023-03-12T03:21:04;-1.80;99.90
21255;DHT22;10785;50.674;17.954;2023-03-12T03:23:34;-1.80;99.90
21255;DHT22;10785;50.674;17.954;2023-03-12T03:26:03;-1.80;99.90
21255;DHT22;10785;50.674;17.954;2023-03-12T03:28:31;-1.80;99.90
21255;DHT22;10785;50.674;17.954;2023-03-12T03:31:02;-1.80;99.90
21255;DHT22;10785;50.674;17.954;2023-03-12T03:33:36;-1.80;99.90
21255;DHT22;10785;50.674;17.954;2023-03-12T03:36:08;-1.80;99.90
21255;DHT22;10785;50.674;17.954;2023-03-12T03:38:42;-1.80;99.90
21255;DHT22;10785;50.674;17.954;2023-03-12T03:41:16;-1.80;99.90
21255;DHT22;10785;50.674;17.954;2023-03-12T03:43:45;-1.90;99.90
21255;DHT22;10785;50.674;17.954;2023-03-12T03:46:30;-1.90;99.90
21255;DHT22;10785;50.674;17.954;2023-03-12T03:49:03;-1.80;99.90
21255;DHT22;10785;50.674;17.954;2023-03-12T03:51:33;-1.80;99.90
21255;DHT22;10785;50.674;17.954;2023-03-12T03:54:06;-1.70;99.90
21255;DHT22;10785;50.674;17.954;2023-03-12T03:56:35;-1.60;99.90
21255;DHT22;10785;50.674;17.954;2023-03-12T03:59:05;-1.70;99.90
21255;DHT22;10785;50.674;17.954;2023-03-12T04:01:38;-1.60;99.90
21255;DHT22;10785;50.674;17.954;2023-03-12T04:04:07;-1.60;99.90
21255;DHT22;10785;50.674;17.954;2023-03-12T04:06:36;-1.50;99.90
21255;DHT22;10785;50.674;17.954;2023-03-12T04:09:04;-1.40;99.90
21255;DHT22;10785;50.674;17.954;2023-03-12T04:11:35;-1.40;99.90
21255;DHT22;10785;50.674;17.954;2023-03-12T04:14:06;-1.30;99.90
21255;DHT22;10785;50.674;17.954;2023-03-12T04:16:38;-1.20;99.90
21255;DHT22;10785;50.674;17.954;2023-03-12T04:19:07;-1.20;99.90
21255;DHT22;10785;50.674;17.954;2023-03-12T04:57:12;-1.00;99.90
21255;DHT22;10785;50.674;17.954;2023-03-12T04:59:41;-1.00;99.90
21255;DHT22;10785;50.674;17.954;2023-03-12T05:02:09;-1.00;99.90
21255;DHT22;10785;50.674;17.954;2023-03-12T05:04:40;-1.00;99.90
21255;DHT22;10785;50.674;17.954;2023-03-12T05:07:09;-1.00;99.90
21255;DHT22;10785;50.674;17.954;2023-03-12T05:09:38;-1.00;99.90
21255;DHT22;10785;50.674;17.954;2023-03-12T05:12:07;-0.90;99.90
21255;DHT22;10785;50.674;17.954;2023-03-12T05:14:38;-0.90;99.90
21255;DHT22;10785;50.674;17.954;2023-03-12T05:17:08;-0.90;99.90
21255;DHT22;10785;50.674;17.954;2023-03-12T05:19:36;-0.80;99.90
21255;DHT22;10785;50.674;17.954;2023-03-12T05:22:05;-0.80;99.90
21255;DHT22;10785;50.674;17.954;2023-03-12T05:24:34;-0.70;99.90
21255;DHT22;10785;50.674;17.954;2023-03-12T05:27:03;-0.60;99.90
21255;DHT22;10785;50.674;17.954;2023-03-12T05:29:34;-0.20;99.90
21255;DHT22;10785;50.674;17.954;2023-03-12T05:32:05;0.00;99.90
21255;DHT22;10785;50.674;17.954;2023-03-12T05:34:35;0.00;99.90
21255;DHT22;10785;50.674;17.954;2023-03-12T05:37:04;0.30;99.90
21255;DHT22;10785;50.674;17.954;2023-03-12T05:39:33;0.60;99.90
21255;DHT22;10785;50.674;17.954;2023-03-12T05:42:04;0.50;99.90
21255;DHT22;10785;50.674;17.954;2023-03-12T05:44:34;0.40;99.90
21255;DHT22;10785;50.674;17.954;2023-03-12T05:47:02;0.30;99.90
21255;DHT22;10785;50.674;17.954;2023-03-12T05:49:32;0.30;99.90
21255;DHT22;10785;50.674;17.954;2023-03-12T05:52:01;0.30;99.90
21255;DHT22;10785;50.674;17.954;2023-03-12T05:54:30;0.20;99.90
21255;DHT22;10785;50.674;17.954;2023-03-12T05:56:58;0.20;99.90
21255;DHT22;10785;50.674;17.954;2023-03-12T05:59:29;0.30;99.90
21255;DHT22;10785;50.674;17.954;2023-03-12T06:01:59;0.30;99.90
21255;DHT22;10785;50.674;17.954;2023-03-12T06:04:28;0.30;99.90
21255;DHT22;10785;50.674;17.954;2023-03-12T06:06:58;0.40;99.90
21255;DHT22;10785;50.674;17.954;2023-03-12T06:09:27;0.40;99.90
21255;DHT22;10785;50.674;17.954;2023-03-12T06:11:56;0.50;99.90
21255;DHT22;10785;50.674;17.954;2023-03-12T06:14:25;0.60;99.10
21255;DHT22;10785;50.674;17.954;2023-03-12T06:16:54;0.70;98.70
21255;DHT22;10785;50.674;17.954;2023-03-12T06:19:23;0.80;98.10
21255;DHT22;10785;50.674;17.954;2023-03-12T06:21:52;0.90;97.20
21255;DHT22;10785;50.674;17.954;2023-03-12T06:24:22;0.90;96.00
21255;DHT22;10785;50.674;17.954;2023-03-12T06:46:20;1.20;93.80
21255;DHT22;10785;50.674;17.954;2023-03-12T06:48:51;1.20;93.60
21255;DHT22;10785;50.674;17.954;2023-03-12T06:51:20;1.30;92.80
21255;DHT22;10785;50.674;17.954;2023-03-12T06:53:48;1.30;92.60
21255;DHT22;10785;50.674;17.954;2023-03-12T06:56:17;1.30;92.80
21255;DHT22;10785;50.674;17.954;2023-03-12T06:58:45;1.40;92.30
21255;DHT22;10785;50.674;17.954;2023-03-12T07:01:15;1.50;92.10
21255;DHT22;10785;50.674;17.954;2023-03-12T07:03:45;1.50;91.40
21255;DHT22;10785;50.674;17.954;2023-03-12T07:06:15;1.60;92.20
21255;DHT22;10785;50.674;17.954;2023-03-12T07:08:44;1.80;91.50
21255;DHT22;10785;50.674;17.954;2023-03-12T07:11:13;1.90;90.40
21255;DHT22;10785;50.674;17.954;2023-03-12T07:13:41;2.20;87.50
21255;DHT22;10785;50.674;17.954;2023-03-12T07:16:10;2.40;81.90
21255;DHT22;10785;50.674;17.954;2023-03-12T07:18:39;2.60;80.10
21255;DHT22;10785;50.674;17.954;2023-03-12T07:21:09;2.70;77.20
21255;DHT22;10785;50.674;17.954;2023-03-12T07:23:38;2.80;72.30
21255;DHT22;10785;50.674;17.954;2023-03-12T07:26:07;2.80;72.30
21255;DHT22;10785;50.674;17.954;2023-03-12T07:28:35;2.80;73.50
21255;DHT22;10785;50.674;17.954;2023-03-12T07:31:04;2.90;73.30
21255;DHT22;10785;50.674;17.954;2023-03-12T07:33:33;2.90;74.10
21255;DHT22;10785;50.674;17.954;2023-03-12T07:36:03;3.00;71.80
21255;DHT22;10785;50.674;17.954;2023-03-12T07:38:33;2.90;70.60
21255;DHT22;10785;50.674;17.954;2023-03-12T07:41:02;2.90;72.20
21255;DHT22;10785;50.674;17.954;2023-03-12T07:43:31;2.80;70.80
21255;DHT22;10785;50.674;17.954;2023-03-12T07:46:00;2.90;73.10
21255;DHT22;10785;50.674;17.954;2023-03-12T07:48:28;3.20;71.90
21255;DHT22;10785;50.674;17.954;2023-03-12T07:50:57;3.40;70.80
21255;DHT22;10785;50.674;17.954;2023-03-12T07:53:25;3.70;69.50
21255;DHT22;10785;50.674;17.954;2023-03-12T07:55:55;4.00;67.70
21255;DHT22;10785;50.674;17.954;2023-03-12T07:58:24;4.20;62.80
21255;DHT22;10785;50.674;17.954;2023-03-12T08:00:54;4.10;61.80
21255;DHT22;10785;50.674;17.954;2023-03-12T08:03:23;3.90;63.80
21255;DHT22;10785;50.674;17.954;2023-03-12T08:05:56;3.80;62.50
21255;DHT22;10785;50.674;17.954;2023-03-12T08:08:25;4.00;62.30
21255;DHT22;10785;50.674;17.954;2023-03-12T08:10:56;4.40;60.50
21255;DHT22;10785;50.674;17.954;2023-03-12T08:13:25;4.80;57.40
21255;DHT22;10785;50.674;17.954;2023-03-12T08:15:54;4.80;57.40
21255;DHT22;10785;50.674;17.954;2023-03-12T08:18:23;4.80;55.60
21255;DHT22;10785;50.674;17.954;2023-03-12T08:20:52;4.60;55.80
21255;DHT22;10785;50.674;17.954;2023-03-12T08:23:21;4.40;54.90
21255;DHT22;10785;50.674;17.954;2023-03-12T08:25:50;4.20;56.90
21255;DHT22;10785;50.674;17.954;2023-03-12T08:28:22;3.80;59.00
21255;DHT22;10785;50.674;17.954;2023-03-12T08:30:52;3.70;63.10
21255;DHT22;10785;50.674;17.954;2023-03-12T08:33:21;3.50;65.60
21255;DHT22;10785;50.674;17.954;2023-03-12T08:35:50;3.40;67.70
21255;DHT22;10785;50.674;17.954;2023-03-12T08:38:19;3.60;68.80
21255;DHT22;10785;50.674;17.954;2023-03-12T08:40:54;3.80;69.00
21255;DHT22;10785;50.674;17.954;2023-03-12T08:43:25;3.60;65.80
21255;DHT22;10785;50.674;17.954;2023-03-12T08:45:56;3.60;66.20
21255;DHT22;10785;50.674;17.954;2023-03-12T08:48:25;3.80;67.40
21255;DHT22;10785;50.674;17.954;2023-03-12T08:50:54;4.10;65.50
21255;DHT22;10785;50.674;17.954;2023-03-12T08:53:24;4.10;64.20
21255;DHT22;10785;50.674;17.954;2023-03-12T08:55:52;4.30;63.70
21255;DHT22;10785;50.674;17.954;2023-03-12T08:58:23;4.50;61.40
21255;DHT22;10785;50.674;17.954;2023-03-12T09:00:52;4.20;59.10
21255;DHT22;10785;50.674;17.954;2023-03-12T09:03:22;3.90;62.50
21255;DHT22;10785;50.674;17.954;2023-03-12T09:06:01;4.00;65.10
21255;DHT22;10785;50.674;17.954;2023-03-12T09:08:30;4.20;64.40
21255;DHT22;10785;50.674;17.954;2023-03-12T09:11:00;4.40;63.60
21255;DHT22;10785;50.674;17.954;2023-03-12T09:13:30;4.70;62.60
21255;DHT22;10785;50.674;17.954;2023-03-12T09:16:19;4.70;61.40
21255;DHT22;10785;50.674;17.954;2023-03-12T09:18:48;4.70;59.10
21255;DHT22;10785;50.674;17.954;2023-03-12T09:21:17;4.30;61.10
21255;DHT22;10785;50.674;17.954;2023-03-12T09:23:45;4.10;62.50
21255;DHT22;10785;50.674;17.954;2023-03-12T09:26:14;4.30;64.90
21255;DHT22;10785;50.674;17.954;2023-03-12T09:28:44;4.60;65.20
21255;DHT22;10785;50.674;17.954;2023-03-12T09:31:13;4.60;63.70
21255;DHT22;10785;50.674;17.954;2023-03-12T09:40:11;4.50;65.40
21255;DHT22;10785;50.674;17.954;2023-03-12T09:42:48;4.80;64.00
21255;DHT22;10785;50.674;17.954;2023-03-12T09:45:21;5.20;61.50
21255;DHT22;10785;50.674;17.954;2023-03-12T09:47:52;5.10;60.10
21255;DHT22;10785;50.674;17.954;2023-03-12T09:50:25;5.30;61.90
21255;DHT22;10785;50.674;17.954;2023-03-12T09:52:57;5.40;59.90
21255;DHT22;10785;50.674;17.954;2023-03-12T09:55:31;5.70;57.10
21255;DHT22;10785;50.674;17.954;2023-03-12T09:58:03;5.70;58.70
21255;DHT22;10785;50.674;17.954;2023-03-12T10:00:34;5.50;57.90
21255;DHT22;10785;50.674;17.954;2023-03-12T10:03:24;5.10;59.20
21255;DHT22;10785;50.674;17.954;2023-03-12T10:06:05;4.80;62.00
21255;DHT22;10785;50.674;17.954;2023-03-12T10:08:50;4.50;64.60
21255;DHT22;10785;50.674;17.954;2023-03-12T10:11:30;4.40;65.60
21255;DHT22;10785;50.674;17.954;2023-03-12T10:14:07;4.30;67.30
21255;DHT22;10785;50.674;17.954;2023-03-12T10:53:53;5.40;61.40
21255;DHT22;10785;50.674;17.954;2023-03-12T10:56:22;5.20;58.60
21255;DHT22;10785;50.674;17.954;2023-03-12T10:58:52;5.10;61.60
21255;DHT22;10785;50.674;17.954;2023-03-12T11:01:22;5.40;62.10
21255;DHT22;10785;50.674;17.954;2023-03-12T11:04:06;5.20;57.40
21255;DHT22;10785;50.674;17.954;2023-03-12T11:06:38;5.10;58.30
21255;DHT22;10785;50.674;17.954;2023-03-12T11:09:16;5.20;63.30
21255;DHT22;10785;50.674;17.954;2023-03-12T11:11:46;5.10;61.10
21255;DHT22;10785;50.674;17.954;2023-03-12T11:14:17;4.90;63.00
21255;DHT22;10785;50.674;17.954;2023-03-12T11:16:47;4.90;62.50
21255;DHT22;10785;50.674;17.954;2023-03-12T11:19:26;5.30;60.60
21255;DHT22;10785;50.674;17.954;2023-03-12T11:21:56;5.50;61.50
21255;DHT22;10785;50.674;17.954;2023-03-12T11:24:27;5.60;57.50
21255;DHT22;10785;50.674;17.954;2023-03-12T11:27:01;5.40;56.40
21255;DHT22;10785;50.674;17.954;2023-03-12T11:29:34;5.30;54.00
21255;DHT22;10785;50.674;17.954;2023-03-12T11:32:11;5.40;54.30
21255;DHT22;10785;50.674;17.954;2023-03-12T11:34:43;5.20;54.10
21255;DHT22;10785;50.674;17.954;2023-03-12T11:37:20;5.20;53.60
21255;DHT22;10785;50.674;17.954;2023-03-12T11:40:08;5.30;54.10
21255;DHT22;10785;50.674;17.954;2023-03-12T11:42:50;5.60;54.80
21255;DHT22;10785;50.674;17.954;2023-03-12T11:45:25;5.90;54.10
21255;DHT22;10785;50.674;17.954;2023-03-12T11:48:03;6.00;50.30
21255;DHT22;10785;50.674;17.954;2023-03-12T11:50:42;5.80;48.50
21255;DHT22;10785;50.674;17.954;2023-03-12T11:53:24;5.70;49.40
21255;DHT22;10785;50.674;17.954;2023-03-12T11:58:52;6.20;47.60
21255;DHT22;10785;50.674;17.954;2023-03-12T12:01:29;6.50;46.30
21255;DHT22;10785;50.674;17.954;2023-03-12T12:04:33;6.20;42.20
21255;DHT22;10785;50.674;17.954;2023-03-12T12:07:09;6.10;43.10
21255;DHT22;10785;50.674;17.954;2023-03-12T12:09:43;6.10;42.40
21255;DHT22;10785;50.674;17.954;2023-03-12T12:12:21;6.10;40.10
21255;DHT22;10785;50.674;17.954;2023-03-12T12:15:13;6.10;35.70
21255;DHT22;10785;50.674;17.954;2023-03-12T12:17:54;6.10;37.50
21255;DHT22;10785;50.674;17.954;2023-03-12T12:20:30;6.40;36.30
21255;DHT22;10785;50.674;17.954;2023-03-12T12:23:08;6.30;35.00
21255;DHT22;10785;50.674;17.954;2023-03-12T12:26:06;6.20;36.40
21255;DHT22;10785;50.674;17.954;2023-03-12T12:29:18;5.90;39.00
21255;DHT22;10785;50.674;17.954;2023-03-12T12:31:53;6.00;40.00
21255;DHT22;10785;50.674;17.954;2023-03-12T12:34:38;6.10;38.90
21255;DHT22;10785;50.674;17.954;2023-03-12T12:37:31;6.50;38.20
21255;DHT22;10785;50.674;17.954;2023-03-12T12:40:10;6.90;35.90
21255;DHT22;10785;50.674;17.954;2023-03-12T12:42:51;7.20;36.00
21255;DHT22;10785;50.674;17.954;2023-03-12T12:45:24;7.40;34.20
21255;DHT22;10785;50.674;17.954;2023-03-12T12:48:00;7.50;33.10
21255;DHT22;10785;50.674;17.954;2023-03-12T12:50:36;7.70;32.80
21255;DHT22;10785;50.674;17.954;2023-03-12T12:53:15;7.70;33.20
21255;DHT22;10785;50.674;17.954;2023-03-12T12:55:58;7.60;31.90
21255;DHT22;10785;50.674;17.954;2023-03-12T12:58:53;7.60;32.10
21255;DHT22;10785;50.674;17.954;2023-03-12T13:01:25;7.40;33.10
21255;DHT22;10785;50.674;17.954;2023-03-12T13:04:00;7.60;32.80
21255;DHT22;10785;50.674;17.954;2023-03-12T13:06:53;7.60;31.70
21255;DHT22;10785;50.674;17.954;2023-03-12T13:09:33;7.80;31.30
21255;DHT22;10785;50.674;17.954;2023-03-12T13:12:16;7.60;31.70
21255;DHT22;10785;50.674;17.954;2023-03-12T13:14:47;7.60;30.70
21255;DHT22;10785;50.674;17.954;2023-03-12T13:17:34;7.70;30.20
21255;DHT22;10785;50.674;17.954;2023-03-12T13:20:14;7.70;30.20
21255;DHT22;10785;50.674;17.954;2023-03-12T13:22:52;7.60;28.50
21255;DHT22;10785;50.674;17.954;2023-03-12T13:25:30;7.50;28.60
21255;DHT22;10785;50.674;17.954;2023-03-12T13:28:27;7.50;28.00
21255;DHT22;10785;50.674;17.954;2023-03-12T13:30:59;7.40;28.20
21255;DHT22;10785;50.674;17.954;2023-03-12T13:33:41;7.40;28.00
21255;DHT22;10785;50.674;17.954;2023-03-12T13:36:23;7.40;27.60
21255;DHT22;10785;50.674;17.954;2023-03-12T13:38:56;7.30;28.00
21255;DHT22;10785;50.674;17.954;2023-03-12T13:41:34;7.40;28.70
21255;DHT22;10785;50.674;17.954;2023-03-12T13:44:28;7.60;28.50
21255;DHT22;10785;50.674;17.954;2023-03-12T13:46:58;7.60;28.30
21255;DHT22;10785;50.674;17.954;2023-03-12T13:49:34;7.40;28.00
21255;DHT22;10785;50.674;17.954;2023-03-12T13:52:18;7.40;27.30
21255;DHT22;10785;50.674;17.954;2023-03-12T13:54:56;7.50;27.00
21255;DHT22;10785;50.674;17.954;2023-03-12T13:57:44;7.40;27.60
21255;DHT22;10785;50.674;17.954;2023-03-12T14:00:19;7.50;26.70
21255;DHT22;10785;50.674;17.954;2023-03-12T14:02:54;7.50;26.30
21255;DHT22;10785;50.674;17.954;2023-03-12T14:05:25;7.50;26.30
21255;DHT22;10785;50.674;17.954;2023-03-12T14:08:12;7.50;26.30
21255;DHT22;10785;50.674;17.954;2023-03-12T14:10:48;7.50;25.80
21255;DHT22;10785;50.674;17.954;2023-03-12T14:13:34;7.50;25.50
21255;DHT22;10785;50.674;17.954;2023-03-12T14:16:10;7.60;24.90
21255;DHT22;10785;50.674;17.954;2023-03-12T14:18:44;7.70;25.00
21255;DHT22;10785;50.674;17.954;2023-03-12T14:21:15;7.60;23.80
21255;DHT22;10785;50.674;17.954;2023-03-12T14:23:51;7.60;22.40
21255;DHT22;10785;50.674;17.954;2023-03-12T14:26:23;7.60;21.20
21255;DHT22;10785;50.674;17.954;2023-03-12T14:28:56;7.60;20.50
21255;DHT22;10785;50.674;17.954;2023-03-12T14:31:27;7.50;20.60
21255;DHT22;10785;50.674;17.954;2023-03-12T14:33:59;7.40;20.10
21255;DHT22;10785;50.674;17.954;2023-03-12T14:36:36;7.40;18.40
21255;DHT22;10785;50.674;17.954;2023-03-12T14:39:24;7.20;18.00
21255;DHT22;10785;50.674;17.954;2023-03-12T14:41:57;7.20;18.10
21255;DHT22;10785;50.674;17.954;2023-03-12T14:44:28;7.10;19.30
21255;DHT22;10785;50.674;17.954;2023-03-12T14:46:58;7.20;18.40
21255;DHT22;10785;50.674;17.954;2023-03-12T14:49:28;7.20;18.50
21255;DHT22;10785;50.674;17.954;2023-03-12T15:04:53;6.80;17.40
21255;DHT22;10785;50.674;17.954;2023-03-12T15:07:27;6.90;17.60
21255;DHT22;10785;50.674;17.954;2023-03-12T15:09:56;6.80;16.40
21255;DHT22;10785;50.674;17.954;2023-03-12T15:12:28;6.90;14.90
21255;DHT22;10785;50.674;17.954;2023-03-12T15:15:02;6.80;14.00
21255;DHT22;10785;50.674;17.954;2023-03-12T15:17:34;6.90;13.70
21255;DHT22;10785;50.674;17.954;2023-03-12T15:20:06;7.00;13.00
21255;DHT22;10785;50.674;17.954;2023-03-12T15:22:36;7.00;12.10
21255;DHT22;10785;50.674;17.954;2023-03-12T15:25:20;7.00;11.70
21255;DHT22;10785;50.674;17.954;2023-03-12T15:28:00;7.00;10.90
21255;DHT22;10785;50.674;17.954;2023-03-12T15:30:29;7.00;11.20
21255;DHT22;10785;50.674;17.954;2023-03-12T15:33:06;6.80;11.40
21255;DHT22;10785;50.674;17.954;2023-03-12T15:35:39;6.80;11.40
21255;DHT22;10785;50.674;17.954;2023-03-12T15:38:15;6.80;11.40
21255;DHT22;10785;50.674;17.954;2023-03-12T15:40:48;6.70;11.70
21255;DHT22;10785;50.674;17.954;2023-03-12T15:43:19;6.70;11.50
21255;DHT22;10785;50.674;17.954;2023-03-12T15:45:55;6.60;11.80
21255;DHT22;10785;50.674;17.954;2023-03-12T15:48:28;6.60;12.50
21255;DHT22;10785;50.674;17.954;2023-03-12T15:50:59;6.50;13.00
21255;DHT22;10785;50.674;17.954;2023-03-12T15:53:29;6.50;13.50
21255;DHT22;10785;50.674;17.954;2023-03-12T15:56:02;6.50;13.60
21255;DHT22;10785;50.674;17.954;2023-03-12T15:58:33;6.50;14.00
21255;DHT22;10785;50.674;17.954;2023-03-12T16:01:10;6.40;14.80
21255;DHT22;10785;50.674;17.954;2023-03-12T16:03:39;6.40;15.50
21255;DHT22;10785;50.674;17.954;2023-03-12T16:06:12;6.30;15.30
21255;DHT22;10785;50.674;17.954;2023-03-12T16:08:44;6.30;15.30
21255;DHT22;10785;50.674;17.954;2023-03-12T16:11:15;6.30;15.80
21255;DHT22;10785;50.674;17.954;2023-03-12T16:13:46;6.20;15.10
21255;DHT22;10785;50.674;17.954;2023-03-12T16:16:16;6.20;15.20
21255;DHT22;10785;50.674;17.954;2023-03-12T16:18:44;6.10;15.80
21255;DHT22;10785;50.674;17.954;2023-03-12T16:21:14;6.10;14.10
21255;DHT22;10785;50.674;17.954;2023-03-12T16:23:44;6.10;14.30
21255;DHT22;10785;50.674;17.954;2023-03-12T16:26:13;6.10;13.70
21255;DHT22;10785;50.674;17.954;2023-03-12T16:28:42;6.00;13.10
21255;DHT22;10785;50.674;17.954;2023-03-12T16:31:12;6.00;12.40
21255;DHT22;10785;50.674;17.954;2023-03-12T16:33:42;5.90;12.60
21255;DHT22;10785;50.674;17.954;2023-03-12T16:36:14;5.90;12.50
21255;DHT22;10785;50.674;17.954;2023-03-12T16:38:43;5.80;12.80
21255;DHT22;10785;50.674;17.954;2023-03-12T16:41:15;5.80;12.90
21255;DHT22;10785;50.674;17.954;2023-03-12T16:43:45;5.80;13.50
21255;DHT22;10785;50.674;17.954;2023-03-12T16:46:30;5.70;14.20
21255;DHT22;10785;50.674;17.954;2023-03-12T16:48:59;5.70;15.40
21255;DHT22;10785;50.674;17.954;2023-03-12T16:51:29;5.60;16.30
21255;DHT22;10785;50.674;17.954;2023-03-12T16:53:58;5.60;17.50
21255;DHT22;10785;50.674;17.954;2023-03-12T16:56:41;5.50;19.30
21255;DHT22;10785;50.674;17.954;2023-03-12T17:21:26;5.10;28.00
21255;DHT22;10785;50.674;17.954;2023-03-12T17:23:55;5.10;27.70
21255;DHT22;10785;50.674;17.954;2023-03-12T17:26:24;5.10;28.50
21255;DHT22;10785;50.674;17.954;2023-03-12T17:28:52;5.10;30.00
21255;DHT22;10785;50.674;17.954;2023-03-12T17:31:21;5.00;33.20
21255;DHT22;10785;50.674;17.954;2023-03-12T17:33:50;5.00;36.70
21255;DHT22;10785;50.674;17.954;2023-03-12T17:36:19;5.00;40.30
21255;DHT22;10785;50.674;17.954;2023-03-12T17:38:49;5.00;43.60
21255;DHT22;10785;50.674;17.954;2023-03-12T17:41:18;4.90;47.90
21255;DHT22;10785;50.674;17.954;2023-03-12T17:43:53;4.90;50.30
21255;DHT22;10785;50.674;17.954;2023-03-12T17:46:24;4.90;52.80
21255;DHT22;10785;50.674;17.954;2023-03-12T17:48:53;4.90;53.70
21255;DHT22;10785;50.674;17.954;2023-03-12T17:51:22;4.90;54.60
21255;DHT22;10785;50.674;17.954;2023-03-12T17:53:53;4.90;56.30
21255;DHT22;10785;50.674;17.954;2023-03-12T17:56:21;4.90;57.90
21255;DHT22;10785;50.674;17.954;2023-03-12T17:58:50;4.90;60.10
21255;DHT22;10785;50.674;17.954;2023-03-12T18:01:18;4.90;63.00
21255;DHT22;10785;50.674;17.954;2023-03-12T18:03:47;4.90;64.30
21255;DHT22;10785;50.674;17.954;2023-03-12T18:06:17;4.80;64.30
21255;DHT22;10785;50.674;17.954;2023-03-12T18:08:46;4.80;63.20
21255;DHT22;10785;50.674;17.954;2023-03-12T18:11:16;4.80;62.40
21255;DHT22;10785;50.674;17.954;2023-03-12T18:13:46;4.80;57.60
21255;DHT22;10785;50.674;17.954;2023-03-12T18:16:14;4.80;56.30
21255;DHT22;10785;50.674;17.954;2023-03-12T18:18:43;4.80;50.80
21255;DHT22;10785;50.674;17.954;2023-03-12T18:21:12;4.80;51.10
21255;DHT22;10785;50.674;17.954;2023-03-12T18:23:40;4.80;47.40
21255;DHT22;10785;50.674;17.954;2023-03-12T18:26:09;4.90;44.20
21255;DHT22;10785;50.674;17.954;2023-03-12T18:28:39;4.90;43.00
21255;DHT22;10785;50.674;17.954;2023-03-12T18:31:08;4.90;42.10
21255;DHT22;10785;50.674;17.954;2023-03-12T18:33:37;4.90;40.70
21255;DHT22;10785;50.674;17.954;2023-03-12T18:36:08;4.80;41.00
21255;DHT22;10785;50.674;17.954;2023-03-12T19:24:31;4.70;52.40
21255;DHT22;10785;50.674;17.954;2023-03-12T19:27:00;4.70;53.50
21255;DHT22;10785;50.674;17.954;2023-03-12T19:29:28;4.70;53.30
21255;DHT22;10785;50.674;17.954;2023-03-12T19:31:57;4.70;54.50
21255;DHT22;10785;50.674;17.954;2023-03-12T19:34:25;4.70;55.20